createdAt,value
2022-07-27T12:43:44.397Z,34.79
2022-07-27T12:46:13.030Z,34.27
2022-07-27T12:48:42.062Z,33.43
2022-07-27T12:51:09.985Z,33.79
2022-07-27T12:53:37.858Z,34.11
2022-07-27T12:56:10.218Z,33.91
2022-07-27T12:58:37.800Z,34.15
2022-07-27T13:01:05.453Z,34.55
2022-07-27T13:03:32.268Z,34.78
2022-07-27T13:05:58.909Z,34.63
2022-07-27T13:08:25.615Z,34.96
2022-07-27T13:10:52.614Z,35.21
2022-07-27T13:13:24.404Z,34.88
2022-07-27T13:15:51.382Z,34.63
2022-07-27T13:18:23.194Z,34.29
2022-07-27T13:20:50.610Z,34.50
2022-07-27T13:23:17.520Z,34.65
2022-07-27T13:25:44.173Z,34.84
2022-07-27T13:28:11.532Z,34.58
2022-07-27T13:30:38.194Z,34.00
2022-07-27T13:33:05.021Z,33.82
2022-07-27T13:35:31.712Z,34.21
2022-07-27T13:37:58.942Z,34.07
2022-07-27T13:40:25.622Z,34.25
2022-07-27T13:42:52.252Z,34.56
2022-07-27T13:45:18.944Z,34.66
2022-07-27T13:47:45.694Z,34.52
2022-07-27T13:50:18.450Z,34.33
2022-07-27T13:52:48.082Z,34.83
2022-07-27T13:55:18.265Z,34.74
2022-07-27T13:57:46.812Z,33.75
2022-07-27T14:00:14.311Z,33.62
2022-07-27T14:02:41.950Z,33.73
2022-07-27T14:05:13.242Z,34.44
2022-07-27T14:07:42.909Z,34.37
2022-07-27T14:10:30.405Z,33.26
2022-07-27T14:13:00.973Z,34.64
2022-07-27T14:15:34.519Z,34.44
2022-07-27T14:18:17.562Z,34.83
2022-07-27T14:20:44.221Z,35.11
2022-07-27T14:23:10.865Z,34.17
2022-07-27T14:25:37.694Z,34.22
2022-07-27T14:28:04.601Z,33.83
2022-07-27T14:30:31.257Z,33.67
2022-07-27T14:33:02.970Z,33.77
2022-07-27T14:35:29.921Z,33.63
2022-07-27T14:37:58.441Z,33.03
2022-07-27T14:40:25.797Z,33.31
2022-07-27T14:42:52.596Z,33.34
2022-07-27T14:45:19.965Z,33.41
2022-07-27T14:47:47.473Z,32.72
2022-07-27T14:50:15.054Z,32.27
2022-07-27T14:52:42.061Z,31.79
2022-07-27T14:55:09.709Z,31.95
2022-07-27T14:57:37.028Z,31.78
2022-07-27T15:00:10.593Z,31.80
2022-07-27T15:02:38.245Z,31.77
2022-07-27T15:05:06.665Z,31.58
2022-07-27T15:07:34.261Z,32.09
2022-07-27T15:10:02.290Z,32.26
2022-07-27T15:12:28.925Z,32.32
2022-07-27T15:14:57.171Z,32.51
2022-07-27T15:17:24.449Z,32.28
2022-07-27T15:19:51.743Z,32.60
2022-07-27T15:22:18.897Z,32.72
2022-07-27T15:24:45.662Z,32.96
2022-07-27T15:27:13.897Z,32.61
2022-07-27T15:29:41.194Z,32.51
2022-07-27T15:32:09.975Z,32.64
2022-07-27T15:34:37.410Z,32.30
2022-07-27T15:37:07.478Z,32.38
2022-07-27T15:39:39.036Z,32.78
2022-07-27T15:42:07.342Z,32.96
2022-07-27T15:44:35.336Z,32.98
2022-07-27T15:47:02.695Z,33.19
2022-07-27T15:49:29.757Z,33.18
2022-07-27T15:51:56.684Z,33.19
2022-07-27T15:54:24.181Z,32.45
2022-07-27T15:56:51.236Z,32.33
2022-07-27T15:59:17.948Z,32.39
2022-07-27T16:01:45.567Z,32.63
2022-07-27T16:04:16.641Z,32.77
2022-07-27T16:06:43.468Z,32.82
2022-07-27T16:09:10.558Z,32.90
2022-07-27T16:11:37.546Z,32.93
2022-07-27T16:14:04.533Z,32.63
2022-07-27T16:16:31.306Z,32.75
2022-07-27T16:19:13.123Z,32.45
2022-07-27T16:21:55.250Z,32.07
2022-07-27T16:24:23.785Z,32.28
2022-07-27T16:26:50.564Z,32.42
2022-07-27T16:29:17.305Z,32.51
2022-07-27T16:31:44.182Z,32.56
2022-07-27T16:34:10.876Z,32.54
2022-07-27T16:36:39.201Z,32.51
2022-07-27T16:39:06.240Z,32.42
2022-07-27T16:41:32.962Z,32.53
2022-07-27T16:43:59.685Z,32.44
2022-07-27T16:46:26.353Z,32.44
2022-07-27T16:48:53.303Z,31.75
2022-07-27T16:51:20.271Z,31.75
2022-07-27T16:53:50.579Z,31.59
2022-07-27T16:56:18.058Z,31.50
2022-07-27T16:58:45.112Z,31.48
2022-07-27T17:01:22.071Z,31.65
2022-07-27T17:03:53.779Z,32.03
2022-07-27T17:06:21.063Z,32.31
2022-07-27T17:08:48.553Z,32.07
2022-07-27T17:11:17.531Z,32.22
2022-07-27T17:13:49.056Z,32.29
2022-07-27T17:18:43.747Z,31.80
2022-07-27T17:21:13.129Z,31.66
2022-07-27T17:23:41.662Z,31.55
2022-07-27T17:26:09.734Z,31.64
2022-07-27T17:28:39.394Z,31.57
2022-07-27T17:31:08.896Z,30.89
2022-07-27T17:33:36.010Z,31.25
2022-07-27T17:36:02.687Z,31.41
2022-07-27T17:38:29.468Z,31.00
2022-07-27T17:40:56.362Z,31.15
2022-07-27T17:43:23.207Z,31.40
2022-07-27T17:45:49.939Z,31.17
2022-07-27T17:48:16.977Z,30.52
2022-07-27T17:50:43.650Z,29.90
2022-07-27T17:53:11.051Z,29.83
2022-07-27T17:55:37.986Z,29.60
2022-07-27T17:58:04.779Z,30.00
2022-07-27T18:00:31.646Z,30.09
2022-07-27T18:02:58.433Z,29.83
2022-07-27T18:05:25.258Z,29.47
2022-07-27T18:07:53.280Z,30.05
2022-07-27T18:10:20.796Z,29.93
2022-07-27T18:12:47.584Z,30.03
2022-07-27T18:15:32.786Z,29.84
2022-07-27T18:17:59.523Z,29.71
2022-07-27T18:20:26.633Z,30.04
2022-07-27T18:22:53.479Z,30.09
2022-07-27T18:25:21.986Z,30.31
2022-07-27T18:27:50.220Z,30.27
2022-07-27T18:30:17.856Z,30.26
2022-07-27T18:32:45.549Z,30.34
2022-07-27T18:35:13.108Z,30.17
2022-07-27T18:37:39.944Z,29.94
2022-07-27T18:40:09.109Z,29.87
2022-07-27T18:42:36.647Z,29.97
2022-07-27T18:45:04.715Z,29.91
2022-07-27T18:47:31.446Z,29.81
2022-07-27T18:49:58.214Z,29.88
2022-07-27T18:52:25.078Z,29.65
2022-07-27T18:54:51.769Z,29.69
2022-07-27T18:57:20.248Z,29.89
2022-07-27T18:59:50.158Z,29.89
2022-07-27T19:02:17.363Z,29.87
2022-07-27T19:04:44.873Z,29.83
2022-07-27T19:07:13.842Z,29.78
2022-07-27T19:09:42.706Z,29.75
2022-07-27T19:12:10.035Z,29.84
2022-07-27T19:14:37.145Z,29.92
2022-07-27T19:17:04.187Z,29.95
2022-07-27T19:19:31.182Z,29.99
2022-07-27T19:21:58.279Z,29.80
2022-07-27T19:24:25.071Z,29.62
2022-07-27T19:26:51.857Z,29.70
2022-07-27T19:29:19.877Z,29.77
2022-07-27T19:31:47.222Z,29.73
2022-07-27T19:34:13.925Z,29.77
2022-07-27T19:36:40.568Z,29.65
2022-07-27T19:39:08.065Z,29.63
2022-07-27T19:41:35.540Z,29.61
2022-07-27T19:44:02.720Z,29.46
2022-07-27T19:46:29.612Z,29.24
2022-07-27T19:48:56.534Z,29.07
2022-07-27T19:51:23.389Z,28.92
2022-07-27T19:53:53.575Z,28.85
2022-07-27T19:56:20.278Z,29.09
2022-07-27T19:58:46.976Z,29.00
2022-07-27T20:01:14.057Z,28.85
2022-07-27T20:03:51.997Z,29.08
2022-07-27T20:06:24.760Z,28.77
2022-07-27T20:08:55.844Z,28.48
2022-07-27T20:11:22.705Z,28.50
2022-07-27T20:13:49.339Z,28.60
2022-07-27T20:16:17.808Z,28.57
2022-07-27T20:18:44.620Z,28.56
2022-07-27T20:21:23.214Z,28.29
2022-07-27T20:23:54.649Z,28.42
2022-07-27T20:26:21.381Z,28.59
2022-07-27T20:28:50.090Z,28.74
2022-07-27T20:31:17.259Z,28.83
2022-07-27T20:33:44.243Z,28.81
2022-07-27T20:36:10.937Z,28.85
2022-07-27T20:38:37.671Z,28.90
2022-07-27T20:41:04.363Z,28.37
2022-07-27T20:43:31.970Z,28.46
2022-07-27T20:45:58.878Z,28.44
2022-07-27T20:48:25.643Z,28.36
2022-07-27T20:50:52.478Z,28.18
2022-07-27T20:53:20.365Z,28.46
2022-07-27T20:55:48.089Z,28.53
2022-07-27T20:58:15.157Z,28.52
2022-07-27T21:00:42.030Z,28.59
2022-07-27T21:03:08.719Z,28.55
2022-07-27T21:05:35.508Z,28.07
2022-07-27T21:08:04.574Z,27.80
2022-07-27T21:10:31.249Z,27.21
2022-07-27T21:12:58.546Z,26.91
2022-07-27T21:15:33.579Z,26.78
2022-07-27T21:18:01.447Z,26.97
2022-07-27T21:20:29.198Z,27.10
2022-07-27T21:23:15.164Z,27.35
2022-07-27T21:25:43.386Z,27.50
2022-07-27T21:28:16.516Z,27.49
2022-07-27T21:30:45.518Z,27.43
2022-07-27T21:33:12.285Z,27.50
2022-07-27T21:35:39.009Z,27.40
2022-07-27T21:38:06.280Z,27.45
2022-07-27T21:40:33.305Z,26.81
2022-07-27T21:43:00.965Z,26.75
2022-07-27T21:45:27.797Z,26.53
2022-07-27T21:47:54.545Z,26.42
2022-07-27T21:50:21.400Z,27.06
2022-07-27T21:52:48.083Z,26.60
2022-07-27T21:55:22.936Z,26.24
2022-07-27T21:57:50.683Z,25.80
2022-07-27T22:00:24.533Z,26.24
2022-07-27T22:02:52.325Z,26.85
2022-07-27T22:05:19.194Z,27.28
2022-07-27T22:07:45.880Z,27.35
2022-07-27T22:10:12.601Z,27.23
2022-07-27T22:12:39.343Z,27.29
2022-07-27T22:15:06.549Z,27.16
2022-07-27T22:17:33.423Z,27.34
2022-07-27T22:20:00.199Z,27.59
2022-07-27T22:22:26.889Z,27.52
2022-07-27T22:24:53.801Z,27.48
2022-07-27T22:27:21.007Z,27.62
2022-07-27T22:29:47.694Z,27.41
2022-07-27T22:32:14.419Z,27.26
2022-07-27T22:34:41.197Z,26.52
2022-07-27T22:37:07.866Z,27.07
2022-07-27T22:39:34.664Z,27.32
2022-07-27T22:42:01.353Z,27.08
2022-07-27T22:44:28.366Z,27.03
2022-07-27T22:46:55.136Z,26.98
2022-07-27T22:49:23.018Z,26.55
2022-07-27T22:51:52.671Z,27.18
2022-07-27T22:54:21.869Z,27.13
2022-07-27T22:56:48.727Z,26.74
2022-07-27T22:59:15.425Z,26.74
2022-07-27T23:01:46.248Z,26.96
2022-07-27T23:04:14.953Z,26.95
2022-07-27T23:06:42.549Z,27.31
2022-07-27T23:09:09.219Z,27.20
2022-07-27T23:11:35.889Z,26.63
2022-07-27T23:14:03.230Z,26.24
2022-07-27T23:16:30.016Z,25.73
2022-07-27T23:18:56.766Z,25.95
2022-07-27T23:21:23.400Z,26.23
2022-07-27T23:23:53.443Z,25.59
2022-07-27T23:26:25.624Z,26.19
2022-07-27T23:28:54.193Z,25.80
2022-07-27T23:31:21.624Z,26.06
2022-07-27T23:33:48.457Z,26.03
2022-07-27T23:36:15.175Z,26.17
2022-07-27T23:38:41.839Z,26.41
2022-07-27T23:41:08.656Z,26.25
2022-07-27T23:43:35.291Z,26.21
2022-07-27T23:46:02.795Z,26.45
2022-07-27T23:48:29.447Z,26.39
2022-07-27T23:50:56.129Z,26.60
2022-07-27T23:53:23.940Z,26.42
2022-07-27T23:55:50.802Z,26.35
2022-07-27T23:58:17.464Z,26.30
